Wright, Iowa
Current Conditions -  °F | °C
As of 1:15 AM on Sunday 23 Nov 2014 (Local Time) from KOOA Reporting Station
Overcast Overcast  
Wind Chill: 53°   Ceiling: 1400
Heat Index: 53°   Visibility: 10mi
Dew Point: 49°   Wind: 15mph
Humidity: 88%   Direction: 210°SSW
Pressure: 29.67"   Gusts: 23mph
Location:  41.3158°N, 92.6258°W
Report Text: KOOA 230715Z AUTO 21013G20KT 10SM OVC014 12/10 A2967 RMK AO2 T01150096
Loading
Personal Weather Stations






























Interactive Weather Map New forecast layout! Learn more

10-Day Weather Forecast

Advertisements
Track Severe Weather on mobile